createdAt,value
2023-03-26T00:01:55.724Z,100406.59
2023-03-26T00:04:25.680Z,100415.22
2023-03-26T00:06:54.419Z,100422.91
2023-03-26T00:09:22.411Z,100423.00
2023-03-26T00:11:50.421Z,100416.41
2023-03-26T00:14:18.283Z,100431.44
2023-03-26T00:16:47.857Z,100425.94
2023-03-26T00:19:17.164Z,100413.31
2023-03-26T00:21:45.051Z,100411.78
2023-03-26T00:24:15.547Z,100424.53
2023-03-26T00:26:43.812Z,100421.31
2023-03-26T00:29:14.014Z,100420.47
2023-03-26T00:31:46.659Z,100426.22
2023-03-26T00:34:18.757Z,100422.56
2023-03-26T00:36:47.333Z,100427.31
2023-03-26T00:39:15.504Z,100418.63
2023-03-26T00:41:44.729Z,100417.78
2023-03-26T00:44:12.717Z,100420.34
2023-03-26T00:46:40.973Z,100425.91
2023-03-26T00:49:11.186Z,100420.53
2023-03-26T00:51:39.622Z,100407.69
2023-03-26T00:54:08.804Z,100419.66
2023-03-26T00:56:37.198Z,100405.41
2023-03-26T00:59:05.189Z,100403.16
2023-03-26T01:01:33.253Z,100393.06
2023-03-26T01:04:21.308Z,100380.69
2023-03-26T01:06:49.350Z,100375.88
2023-03-26T01:09:22.366Z,100363.41
2023-03-26T01:11:50.461Z,100374.03
2023-03-26T01:14:24.070Z,100379.84
2023-03-26T01:16:58.495Z,100379.53
2023-03-26T01:19:26.204Z,100380.84
2023-03-26T01:21:53.985Z,100385.25
2023-03-26T01:24:22.366Z,100384.50
2023-03-26T01:27:17.949Z,100381.56
2023-03-26T01:30:11.509Z,100372.63
2023-03-26T01:33:14.618Z,100371.53
2023-03-26T01:35:46.360Z,100361.31
2023-03-26T01:38:33.262Z,100365.41
2023-03-26T01:41:09.828Z,100348.81
2023-03-26T01:43:43.028Z,100356.84
2023-03-26T01:46:12.346Z,100349.81
2023-03-26T01:48:43.111Z,100334.44
2023-03-26T01:51:13.360Z,100344.63
2023-03-26T01:53:45.275Z,100347.72
2023-03-26T01:56:31.668Z,100347.69
2023-03-26T01:59:30.084Z,100330.44
2023-03-26T02:02:15.223Z,100330.44
2023-03-26T02:05:05.291Z,100330.06
2023-03-26T02:07:38.402Z,100331.97
2023-03-26T02:10:16.004Z,100341.81
2023-03-26T02:12:45.097Z,100338.19
2023-03-26T02:15:13.192Z,100350.53
2023-03-26T02:17:41.106Z,100345.47
2023-03-26T02:20:14.723Z,100348.59
2023-03-26T02:22:46.059Z,100352.38
2023-03-26T02:25:19.972Z,100353.06
2023-03-26T02:27:50.747Z,100365.13
2023-03-26T02:30:26.088Z,100368.63
2023-03-26T02:32:59.592Z,100372.00
2023-03-26T02:35:34.780Z,100374.69
2023-03-26T02:38:04.112Z,100378.19
2023-03-26T02:40:31.919Z,100376.78
2023-03-26T02:43:00.963Z,100362.47
2023-03-26T02:45:31.787Z,100377.34
2023-03-26T02:48:05.963Z,100374.41
2023-03-26T02:50:54.694Z,100369.03
2023-03-26T02:53:44.241Z,100373.94
2023-03-26T02:56:41.215Z,100383.06
2023-03-26T02:59:32.021Z,100377.22
2023-03-26T03:02:20.664Z,100374.66
2023-03-26T03:04:48.631Z,100369.59
2023-03-26T03:07:16.559Z,100359.53
2023-03-26T03:09:44.539Z,100358.38
2023-03-26T03:12:47.409Z,100352.66
2023-03-26T03:15:15.351Z,100354.88
2023-03-26T03:17:43.656Z,100362.97
2023-03-26T03:20:11.825Z,100355.09
2023-03-26T03:22:41.019Z,100349.09
2023-03-26T03:25:09.373Z,100361.44
2023-03-26T03:27:39.676Z,100360.31
2023-03-26T03:30:13.761Z,100354.84
2023-03-26T03:32:47.756Z,100355.13
2023-03-26T03:35:20.670Z,100350.81
2023-03-26T03:37:52.544Z,100336.50
2023-03-26T03:40:20.408Z,100335.88
2023-03-26T03:42:48.387Z,100347.97
2023-03-26T03:45:24.336Z,100361.31
2023-03-26T03:48:08.028Z,100362.56
2023-03-26T03:50:45.479Z,100362.66
2023-03-26T03:53:26.384Z,100355.88
2023-03-26T03:55:56.996Z,100350.84
2023-03-26T03:58:35.052Z,100350.28
2023-03-26T04:01:13.750Z,100356.31
2023-03-26T04:03:56.140Z,100358.97
2023-03-26T04:06:30.532Z,100363.22
2023-03-26T04:08:58.433Z,100368.53
2023-03-26T04:11:26.872Z,100369.66
2023-03-26T04:14:17.928Z,100361.91
2023-03-26T04:16:57.849Z,100358.09
2023-03-26T04:19:28.453Z,100360.22
2023-03-26T04:21:56.397Z,100349.56
2023-03-26T04:24:24.958Z,100352.06
2023-03-26T04:27:27.459Z,100353.00
2023-03-26T04:30:05.629Z,100347.69
2023-03-26T04:32:34.864Z,100348.63
2023-03-26T04:35:04.322Z,100359.34
2023-03-26T04:37:41.383Z,100348.53
2023-03-26T04:40:22.152Z,100339.59
2023-03-26T04:43:12.863Z,100349.13
2023-03-26T04:46:02.463Z,100343.34
2023-03-26T04:48:32.872Z,100340.47
2023-03-26T04:51:01.555Z,100351.88
2023-03-26T04:53:29.486Z,100348.09
2023-03-26T04:56:25.093Z,100359.88
2023-03-26T04:59:20.296Z,100371.84
2023-03-26T05:01:49.368Z,100371.31
2023-03-26T05:04:18.740Z,100367.13
2023-03-26T05:06:47.378Z,100365.94
2023-03-26T05:09:33.414Z,100365.34
2023-03-26T05:12:12.640Z,100372.38
2023-03-26T05:14:52.457Z,100362.59
2023-03-26T05:17:41.735Z,100357.44
2023-03-26T05:20:24.283Z,100360.31
2023-03-26T05:22:53.172Z,100356.22
2023-03-26T05:25:27.825Z,100360.50
2023-03-26T05:27:57.063Z,100356.41
2023-03-26T05:30:29.443Z,100352.91
2023-03-26T05:33:04.618Z,100342.53
2023-03-26T05:35:41.919Z,100356.09
2023-03-26T05:38:10.993Z,100354.56
2023-03-26T05:40:39.101Z,100347.19
2023-03-26T05:43:08.537Z,100347.00
2023-03-26T05:45:39.477Z,100350.50
2023-03-26T05:48:29.546Z,100344.66
2023-03-26T05:50:58.899Z,100342.25
2023-03-26T05:53:29.359Z,100347.56
2023-03-26T05:56:15.939Z,100351.72
2023-03-26T05:59:02.595Z,100348.75
2023-03-26T06:02:02.766Z,100355.00
2023-03-26T06:04:49.366Z,100355.59
2023-03-26T06:07:52.458Z,100358.69
2023-03-26T06:10:21.095Z,100359.97
2023-03-26T06:12:50.110Z,100357.19
2023-03-26T06:15:19.072Z,100364.66
2023-03-26T06:18:07.221Z,100366.53
2023-03-26T06:20:59.135Z,100362.03
2023-03-26T06:23:41.145Z,100362.31
2023-03-26T06:26:32.702Z,100360.50
2023-03-26T06:29:19.257Z,100353.34
2023-03-26T06:31:49.985Z,100345.47
2023-03-26T06:34:33.725Z,100345.06
2023-03-26T06:37:01.698Z,100338.19
2023-03-26T06:39:30.886Z,100332.16
2023-03-26T06:42:20.997Z,100327.34
2023-03-26T06:45:51.874Z,100336.16
2023-03-26T06:48:39.822Z,100336.75
2023-03-26T06:51:18.866Z,100337.72
2023-03-26T06:54:16.905Z,100334.03
2023-03-26T06:56:52.404Z,100335.25
2023-03-26T06:59:26.378Z,100336.03
2023-03-26T07:02:13.038Z,100328.13
2023-03-26T07:04:59.657Z,100324.41
2023-03-26T07:07:46.793Z,100335.66
2023-03-26T07:10:34.029Z,100316.38
2023-03-26T07:13:25.521Z,100314.50
2023-03-26T07:16:12.360Z,100300.06
2023-03-26T07:19:16.020Z,100300.06
2023-03-26T07:21:44.401Z,100296.59
2023-03-26T07:24:32.636Z,100300.88
2023-03-26T07:27:11.215Z,100299.34
2023-03-26T07:29:50.819Z,100293.88
2023-03-26T07:32:52.163Z,100292.50
2023-03-26T07:36:05.202Z,100281.47
2023-03-26T07:39:19.389Z,100270.53
2023-03-26T07:42:32.907Z,100255.44
2023-03-26T07:45:40.072Z,100260.59
2023-03-26T07:48:40.997Z,100244.28
2023-03-26T07:51:18.939Z,100239.13
2023-03-26T07:53:54.378Z,100241.66
2023-03-26T07:56:56.541Z,100237.63
2023-03-26T07:59:52.808Z,100228.13
2023-03-26T08:02:57.854Z,100217.78
2023-03-26T08:06:03.892Z,100216.75
2023-03-26T08:08:59.603Z,100214.09
2023-03-26T08:12:14.183Z,100210.75
2023-03-26T08:14:47.916Z,100210.25
2023-03-26T08:17:43.044Z,100206.03
2023-03-26T08:20:28.507Z,100199.00
2023-03-26T08:23:02.596Z,100192.56
2023-03-26T08:25:45.805Z,100181.44
2023-03-26T08:28:30.874Z,100195.53
2023-03-26T08:30:59.078Z,100197.41
2023-03-26T08:33:28.292Z,100191.75
2023-03-26T08:35:56.502Z,100194.53
2023-03-26T08:38:24.501Z,100193.84
2023-03-26T08:41:17.307Z,100187.13
2023-03-26T08:44:03.643Z,100173.09
2023-03-26T08:46:52.697Z,100167.88
2023-03-26T08:49:41.643Z,100163.41
2023-03-26T08:52:31.324Z,100162.28
2023-03-26T08:55:17.806Z,100151.06
2023-03-26T08:58:10.744Z,100160.31
2023-03-26T09:01:12.530Z,100150.56
2023-03-26T09:03:59.176Z,100127.56
2023-03-26T09:07:07.371Z,100126.53
2023-03-26T09:09:50.968Z,100115.56
2023-03-26T09:12:18.830Z,100103.84
2023-03-26T09:14:59.082Z,100104.06
2023-03-26T09:18:08.382Z,100095.06
2023-03-26T09:21:12.693Z,100109.06
2023-03-26T09:23:52.939Z,100096.44
2023-03-26T09:26:36.273Z,100085.25
2023-03-26T09:29:22.802Z,100089.59
2023-03-26T09:32:24.029Z,100091.28
2023-03-26T09:35:13.094Z,100095.44
2023-03-26T09:38:00.875Z,100091.56
2023-03-26T09:41:06.386Z,100106.28
2023-03-26T09:43:56.361Z,100101.91
2023-03-26T09:46:42.363Z,100093.13
2023-03-26T09:49:44.540Z,100098.22
2023-03-26T09:52:27.597Z,100096.06
2023-03-26T09:55:01.774Z,100086.41
2023-03-26T09:57:58.706Z,100080.72
2023-03-26T10:00:29.810Z,100085.44
2023-03-26T10:03:31.828Z,100092.16
2023-03-26T10:06:07.277Z,100086.47
2023-03-26T10:09:04.395Z,100097.88
2023-03-26T10:11:56.913Z,100101.88
2023-03-26T10:15:02.411Z,100098.69
2023-03-26T10:17:57.697Z,100083.31
2023-03-26T10:20:35.718Z,100080.69
2023-03-26T10:23:08.067Z,100084.03
2023-03-26T10:25:57.240Z,100071.66
2023-03-26T10:28:44.243Z,100048.72
2023-03-26T10:31:43.006Z,100053.13
2023-03-26T10:34:38.168Z,100045.31
2023-03-26T10:37:20.619Z,100052.16
2023-03-26T10:40:17.771Z,100046.09
2023-03-26T10:43:24.435Z,100052.44
2023-03-26T10:46:04.142Z,100051.75
2023-03-26T10:48:47.879Z,100046.56
2023-03-26T10:51:36.702Z,100037.63
2023-03-26T10:54:26.449Z,100021.22
2023-03-26T10:56:56.557Z,100013.00
2023-03-26T10:59:27.960Z,100013.81
2023-03-26T11:02:14.413Z,100021.19
2023-03-26T11:05:16.661Z,100025.13
2023-03-26T11:07:59.501Z,100008.25
2023-03-26T11:10:53.776Z,100017.66
2023-03-26T11:13:42.546Z,100009.69
2023-03-26T11:16:47.556Z,100007.41
2023-03-26T11:19:38.783Z,100007.88
2023-03-26T11:22:32.478Z,100016.00
2023-03-26T11:25:24.129Z,100008.88
2023-03-26T11:28:09.503Z,100007.41
2023-03-26T11:30:49.378Z,99994.25
2023-03-26T11:33:26.267Z,99961.72
2023-03-26T11:36:03.041Z,99961.06
2023-03-26T11:38:37.607Z,99964.22
2023-03-26T11:41:22.963Z,99955.47
2023-03-26T11:44:15.978Z,99965.72
2023-03-26T11:46:46.936Z,99959.09
2023-03-26T11:49:21.149Z,99963.31
2023-03-26T11:51:49.375Z,99959.50
2023-03-26T11:54:18.208Z,99958.94
2023-03-26T11:57:07.210Z,99962.41
2023-03-26T11:59:57.611Z,99945.19
2023-03-26T12:02:34.369Z,99936.22
2023-03-26T12:05:20.606Z,99933.69
2023-03-26T12:08:04.671Z,99918.25
2023-03-26T12:10:39.412Z,99910.06
2023-03-26T12:13:42.375Z,99889.19
2023-03-26T12:16:17.420Z,99886.28
2023-03-26T12:18:57.702Z,99881.56
2023-03-26T12:21:26.114Z,99878.03
2023-03-26T12:24:02.743Z,99884.44
2023-03-26T12:26:42.236Z,99879.38
2023-03-26T12:29:16.680Z,99883.28
2023-03-26T12:32:04.222Z,99881.66
2023-03-26T12:34:37.666Z,99870.22
2023-03-26T12:37:07.963Z,99866.47
2023-03-26T12:40:10.665Z,99856.25
2023-03-26T12:44:44.825Z,99858.44
2023-03-26T12:45:31.196Z,99860.09
2023-03-26T12:48:03.793Z,99851.16
2023-03-26T12:50:47.951Z,99845.34
2023-03-26T12:53:52.925Z,99839.88
2023-03-26T12:56:37.178Z,99827.44
2023-03-26T12:59:24.008Z,99818.72
2023-03-26T13:02:16.232Z,99818.91
2023-03-26T13:05:12.218Z,99807.13
2023-03-26T13:08:18.836Z,99792.97
2023-03-26T13:11:17.454Z,99792.97
2023-03-26T13:14:17.804Z,99784.22
2023-03-26T13:17:16.787Z,99786.34
2023-03-26T13:20:02.722Z,99795.88
2023-03-26T13:22:45.197Z,99792.44
2023-03-26T13:25:19.428Z,99777.44
2023-03-26T13:28:13.694Z,99771.41
2023-03-26T13:30:54.135Z,99771.78
2023-03-26T13:33:41.200Z,99760.34
2023-03-26T13:36:34.086Z,99748.63
2023-03-26T13:39:03.775Z,99734.53
2023-03-26T13:42:26.941Z,99744.66
2023-03-26T13:45:05.314Z,99741.50
2023-03-26T13:47:42.821Z,99741.88
2023-03-26T13:50:27.774Z,99728.09
2023-03-26T13:53:28.895Z,99716.66
2023-03-26T13:56:00.915Z,99712.03
2023-03-26T13:58:47.665Z,99703.38
2023-03-26T14:01:21.987Z,99691.09
2023-03-26T14:03:56.094Z,99684.38
2023-03-26T14:06:42.531Z,99684.31
2023-03-26T14:09:24.793Z,99673.13
2023-03-26T14:12:22.262Z,99668.41
2023-03-26T14:14:59.308Z,99642.66
2023-03-26T14:17:46.829Z,99644.91
2023-03-26T14:20:48.641Z,99633.63
2023-03-26T14:23:16.605Z,99629.47
2023-03-26T14:26:14.464Z,99631.66
2023-03-26T14:29:03.575Z,99618.03
2023-03-26T14:31:43.970Z,99612.97
2023-03-26T14:34:29.256Z,99605.47
2023-03-26T14:37:27.562Z,99611.81
2023-03-26T14:40:21.595Z,99599.94
2023-03-26T14:43:24.506Z,99600.13
2023-03-26T14:45:59.757Z,99599.59
2023-03-26T14:48:36.923Z,99603.75
2023-03-26T14:51:26.513Z,99597.31
2023-03-26T14:54:01.257Z,99590.34
2023-03-26T14:56:51.277Z,99586.69
2023-03-26T14:59:53.251Z,99589.25
2023-03-26T15:03:07.757Z,99579.91
2023-03-26T15:05:48.377Z,99577.31
2023-03-26T15:08:40.941Z,99566.53
2023-03-26T15:11:26.461Z,99558.72
2023-03-26T15:14:16.125Z,99560.44
2023-03-26T15:17:12.813Z,99554.94
2023-03-26T15:19:59.173Z,99555.72
2023-03-26T15:22:42.159Z,99556.13
2023-03-26T15:25:47.228Z,99550.72
2023-03-26T15:28:21.039Z,99543.69
2023-03-26T15:31:19.696Z,99537.22
2023-03-26T15:34:23.496Z,99531.41
2023-03-26T15:37:17.396Z,99537.16
2023-03-26T15:40:10.068Z,99531.34
2023-03-26T15:43:10.514Z,99528.75
2023-03-26T15:45:56.756Z,99541.56
2023-03-26T15:48:51.120Z,99536.69
2023-03-26T15:51:46.871Z,99550.47
2023-03-26T15:54:32.125Z,99547.66
2023-03-26T15:57:31.987Z,99560.75
2023-03-26T16:00:32.131Z,99556.47
2023-03-26T16:03:11.941Z,99557.66
2023-03-26T16:05:56.457Z,99568.19
2023-03-26T16:08:47.288Z,99580.31
2023-03-26T16:11:15.624Z,99549.03
2023-03-26T16:14:08.578Z,99536.22
2023-03-26T16:16:55.705Z,99564.91
2023-03-26T16:19:23.480Z,99552.88
2023-03-26T16:22:01.857Z,99554.25
2023-03-26T16:24:36.310Z,99567.47
2023-03-26T16:27:25.527Z,99575.81
2023-03-26T16:30:30.673Z,99570.16
2023-03-26T16:33:21.339Z,99554.13
2023-03-26T16:36:34.770Z,99554.63
2023-03-26T16:39:08.775Z,99570.97
2023-03-26T16:41:39.425Z,99585.66
2023-03-26T16:44:27.845Z,99581.34
2023-03-26T16:47:39.099Z,99581.34
2023-03-26T16:50:09.566Z,99562.59
2023-03-26T16:52:55.096Z,99557.78
2023-03-26T16:55:52.094Z,99568.81
2023-03-26T16:58:44.746Z,99571.28
2023-03-26T17:01:34.432Z,99538.44
2023-03-26T17:04:12.980Z,99500.59
2023-03-26T17:07:14.035Z,99482.56
2023-03-26T17:10:09.112Z,99495.91
2023-03-26T17:13:01.868Z,99513.06
2023-03-26T17:15:29.998Z,99495.22
2023-03-26T17:18:43.117Z,99489.00
2023-03-26T17:21:16.712Z,99482.50
2023-03-26T17:23:56.638Z,99475.00
2023-03-26T17:26:32.791Z,99456.81
2023-03-26T17:29:06.348Z,99441.13
2023-03-26T17:31:43.862Z,99435.25
2023-03-26T17:34:34.136Z,99447.38
2023-03-26T17:37:05.563Z,99446.97
2023-03-26T17:39:39.641Z,99456.66
2023-03-26T17:42:19.705Z,99430.34
2023-03-26T17:45:36.411Z,99430.38
2023-03-26T17:48:17.046Z,99415.19
2023-03-26T17:51:30.053Z,99412.88
2023-03-26T17:53:59.392Z,99420.91
2023-03-26T17:56:32.643Z,99423.72
2023-03-26T17:59:11.534Z,99427.88
2023-03-26T18:01:44.441Z,99431.38
2023-03-26T18:04:21.901Z,99436.88
2023-03-26T18:07:17.645Z,99452.56
2023-03-26T18:10:19.562Z,99453.19
2023-03-26T18:13:15.928Z,99469.81
2023-03-26T18:15:58.041Z,99469.50
2023-03-26T18:18:34.925Z,99473.56
2023-03-26T18:21:07.438Z,99480.75
2023-03-26T18:23:42.759Z,99465.91
2023-03-26T18:26:19.529Z,99437.38
2023-03-26T18:29:09.128Z,99417.88
2023-03-26T18:31:41.822Z,99401.03
2023-03-26T18:34:19.675Z,99402.69
2023-03-26T18:37:16.766Z,99421.88
2023-03-26T18:39:57.841Z,99407.19
2023-03-26T18:42:27.645Z,99391.84
2023-03-26T18:44:59.926Z,99412.16
2023-03-26T18:47:31.776Z,99411.50
2023-03-26T18:50:00.558Z,99408.84
2023-03-26T18:52:30.629Z,99418.56
2023-03-26T18:55:00.144Z,99427.69
2023-03-26T18:57:29.420Z,99434.41
2023-03-26T19:00:15.865Z,99441.69
2023-03-26T19:02:44.790Z,99441.66
2023-03-26T19:05:22.049Z,99444.44
2023-03-26T19:07:50.498Z,99445.06
2023-03-26T19:10:21.650Z,99445.03
2023-03-26T19:13:01.759Z,99449.72
2023-03-26T19:15:35.634Z,99462.75
2023-03-26T19:18:14.691Z,99478.97
2023-03-26T19:20:46.339Z,99476.84
2023-03-26T19:23:20.451Z,99491.84
2023-03-26T19:25:55.126Z,99515.31
2023-03-26T19:28:27.529Z,99507.84
2023-03-26T19:30:58.542Z,99508.16
2023-03-26T19:33:36.824Z,99494.19
2023-03-26T19:36:06.662Z,99503.06
2023-03-26T19:38:59.208Z,99498.03
2023-03-26T19:41:36.053Z,99504.19
2023-03-26T19:44:21.168Z,99493.00
2023-03-26T19:46:53.929Z,99484.00
2023-03-26T19:49:32.411Z,99490.66
2023-03-26T19:52:11.436Z,99477.16
2023-03-26T19:54:59.940Z,99470.34
2023-03-26T19:57:34.904Z,99474.63
2023-03-26T20:00:13.689Z,99477.22
2023-03-26T20:02:43.888Z,99484.50
2023-03-26T20:05:23.317Z,99485.59
2023-03-26T20:07:52.425Z,99479.13
2023-03-26T20:10:20.645Z,99475.34
2023-03-26T20:12:48.639Z,99456.72
2023-03-26T20:15:18.921Z,99456.72
2023-03-26T20:17:50.353Z,99440.38
2023-03-26T20:20:20.406Z,99447.59
2023-03-26T20:22:48.445Z,99457.53
2023-03-26T20:25:25.232Z,99445.88
2023-03-26T20:27:55.834Z,99439.28
2023-03-26T20:30:36.942Z,99432.13
2023-03-26T20:33:12.867Z,99440.63
2023-03-26T20:35:41.910Z,99456.59
2023-03-26T20:38:10.537Z,99460.59
2023-03-26T20:40:39.519Z,99461.91
2023-03-26T20:43:18.723Z,99459.41
2023-03-26T20:45:46.771Z,99456.75
2023-03-26T20:48:14.919Z,99463.53
2023-03-26T20:51:01.600Z,99452.88
2023-03-26T20:53:30.707Z,99447.72
2023-03-26T20:55:58.788Z,99441.66
2023-03-26T20:58:30.986Z,99443.66
2023-03-26T21:01:02.334Z,99441.16
2023-03-26T21:03:30.673Z,99446.13
2023-03-26T21:06:03.000Z,99452.09
2023-03-26T21:08:34.510Z,99437.84
2023-03-26T21:11:05.027Z,99452.19
2023-03-26T21:13:54.563Z,99448.03
2023-03-26T21:16:22.747Z,99437.50
2023-03-26T21:18:51.843Z,99444.41
2023-03-26T21:21:57.715Z,99443.69
2023-03-26T21:24:34.042Z,99426.84
2023-03-26T21:27:28.648Z,99419.38
2023-03-26T21:29:58.331Z,99405.56
2023-03-26T21:32:26.636Z,99396.34
2023-03-26T21:34:58.983Z,99396.41
2023-03-26T21:37:28.011Z,99385.28
2023-03-26T21:39:56.193Z,99383.59
2023-03-26T21:42:29.469Z,99387.25
2023-03-26T21:44:57.722Z,99376.56
2023-03-26T21:47:26.029Z,99374.56
2023-03-26T21:49:55.035Z,99359.81
2023-03-26T21:52:24.095Z,99350.41
2023-03-26T21:54:52.512Z,99350.38
2023-03-26T21:57:42.644Z,99345.63
2023-03-26T22:00:15.337Z,99348.22
2023-03-26T22:03:08.769Z,99342.84
2023-03-26T22:06:06.230Z,99346.19
2023-03-26T22:08:41.603Z,99336.22
2023-03-26T22:11:11.686Z,99322.91
2023-03-26T22:13:39.649Z,99322.72
2023-03-26T22:16:10.874Z,99323.72
2023-03-26T22:18:38.818Z,99317.22
2023-03-26T22:21:07.310Z,99305.75
2023-03-26T22:23:36.694Z,99313.31
2023-03-26T22:26:06.122Z,99314.22
2023-03-26T22:28:34.318Z,99301.78
2023-03-26T22:31:07.487Z,99299.00
2023-03-26T22:33:36.309Z,99307.53
2023-03-26T22:36:04.379Z,99307.13
2023-03-26T22:38:32.304Z,99298.50
2023-03-26T22:41:00.189Z,99296.34
2023-03-26T22:43:28.454Z,99296.50
2023-03-26T22:45:56.572Z,99294.84
2023-03-26T22:48:24.627Z,99288.31
2023-03-26T22:51:19.268Z,99282.31
2023-03-26T22:53:47.572Z,99289.09
2023-03-26T22:56:16.033Z,99295.56
2023-03-26T22:58:43.955Z,99293.84
2023-03-26T23:01:13.922Z,99293.84
2023-03-26T23:03:41.847Z,99289.25
2023-03-26T23:06:12.354Z,99281.19
2023-03-26T23:08:40.683Z,99283.66
2023-03-26T23:11:09.745Z,99288.25
2023-03-26T23:13:37.611Z,99290.06
2023-03-26T23:16:06.594Z,99279.97
2023-03-26T23:18:34.633Z,99276.78
2023-03-26T23:21:02.967Z,99275.78
2023-03-26T23:23:34.000Z,99261.88
2023-03-26T23:26:04.789Z,99272.19
2023-03-26T23:28:34.175Z,99269.81
2023-03-26T23:31:05.111Z,99267.53
2023-03-26T23:33:35.655Z,99267.19
2023-03-26T23:36:09.523Z,99274.25
2023-03-26T23:38:44.115Z,99266.50
2023-03-26T23:41:16.518Z,99263.78
2023-03-26T23:43:54.145Z,99274.84
2023-03-26T23:46:31.052Z,99270.81
2023-03-26T23:49:03.628Z,99275.69
2023-03-26T23:51:32.478Z,99265.56
2023-03-26T23:54:01.090Z,99265.28
2023-03-26T23:56:32.842Z,99271.44
2023-03-26T23:59:00.997Z,99267.03
